ENTO/TRF METAR and TAF weather

Enter ICAO airport designator
Station Type Date Time Source
ENTO METAR 2021/05/14 19:50 UTC NOAA

ENTO 141950Z 36009KT CAVOK 16/11 Q1001 TEMPO SHRA


Station Type Date Time Source
ENTO Decoded METAR 2021/05/14 19:50 UTC NOAA

Torp, Norway (ENTO) 59-12N 010-16E 88M
May 14, 2021 - 03:50 PM EDT / 2021.05.14 1950 UTC
Wind: from the N (360 degrees) at 10 MPH (9 KT):0
Visibility: greater than 7 mile(s):0
Temperature: 60 F (16 C)
Dew Point: 51 F (11 C)
Relative Humidity: 72%
Pressure (altimeter): 29.56 in. Hg (1001 hPa)
ob: ENTO 141950Z 36009KT CAVOK 16/11 Q1001 TEMPO SHRA
cycle: 20

Station Type Date Time Source
ENTO TAF 2021/05/14 21:36 UTC NOAA

TAF TAF ENTO 142127Z 1421/1518 CNL

Example: see airport list